Time;durP1;ratioP1;P1;durP2;ratioP2;P2;SDS_P1;SDS_P2;PMS_P1;PMS_P2;Temp;Humidity;BMP_temperature;BMP_pressure;BME280_temperature;BME280_humidity;BME280_pressure;Samples;Min_cycle;Max_cycle;Signal;HPM_P1;HPM_P2
2024/02/13 00:00:16;;;;;;;7.30;2.07;;;;;;;5.64;100.00;152810.41;5050515;28;20469;-77
2024/02/13 00:02:42;;;;;;;3.67;2.30;;;;;;;5.61;100.00;152802.72;5030738;28;20459;-77
2024/02/13 00:05:10;;;;;;;3.37;1.90;;;;;;;5.60;100.00;152800.09;5031008;28;20438;-77
2024/02/13 00:07:38;;;;;;;6.33;2.57;;;;;;;5.57;100.00;152792.38;5035143;28;21022;-77
2024/02/13 00:10:08;;;;;;;3.70;1.90;;;;;;;5.52;100.00;152779.47;5034947;28;20436;-77
2024/02/13 00:12:35;;;;;;;3.10;2.50;;;;;;;5.50;100.00;152775.63;5045038;28;20447;-77
2024/02/13 00:15:01;;;;;;;3.43;2.27;;;;;;;5.48;100.00;152769.19;5048353;28;20454;-77
2024/02/13 00:17:29;;;;;;;7.50;2.73;;;;;;;5.45;100.00;152762.69;5047834;28;20435;-77
2024/02/13 00:19:56;;;;;;;2.73;2.10;;;;;;;5.42;100.00;152755.00;5058510;28;21049;-77
2024/02/13 00:22:23;;;;;;;2.27;2.03;;;;;;;5.40;100.00;152748.56;5039603;28;20461;-77
2024/02/13 00:24:50;;;;;;;6.00;2.17;;;;;;;5.37;100.00;152740.81;5045665;28;20455;-77
2024/02/13 00:27:17;;;;;;;3.47;2.00;;;;;;;5.34;100.00;152733.06;5047240;28;20447;-77
2024/02/13 00:29:44;;;;;;;2.97;1.80;;;;;;;5.29;100.00;152721.47;5044601;28;21154;-77
2024/02/13 00:32:11;;;;;;;5.43;2.77;;;;;;;5.27;100.00;152715.03;5046468;28;20512;-77
2024/02/13 00:34:39;;;;;;;4.57;2.87;;;;;;;5.25;100.00;152709.84;5045396;28;20488;-77
2024/02/13 00:37:08;;;;;;;2.20;1.70;;;;;;;5.26;100.00;152712.44;5042805;28;20443;-77
2024/02/13 00:39:35;;;;;;;3.63;2.17;;;;;;;5.26;100.00;152712.44;5043038;28;20597;-77
2024/02/13 00:42:02;;;;;;;3.80;2.40;;;;;;;5.26;100.00;152712.44;5046969;28;20488;-77
2024/02/13 00:44:29;;;;;;;7.13;2.20;;;;;;;5.25;100.00;152709.84;5046936;28;20466;-78
2024/02/13 00:46:57;;;;;;;3.67;2.03;;;;;;;5.20;100.00;152698.25;5041810;28;21090;-77
2024/02/13 00:49:23;;;;;;;5.90;2.10;;;;;;;5.18;100.00;152691.81;5044378;28;20928;-77
2024/02/13 00:51:51;;;;;;;2.87;1.93;;;;;;;5.21;100.00;152699.56;5043172;28;20940;-78
2024/02/13 00:54:18;;;;;;;4.70;2.10;;;;;;;5.21;100.00;152699.56;5045457;28;20458;-77
2024/02/13 00:56:44;;;;;;;3.47;2.00;;;;;;;5.23;100.00;152704.69;5039505;28;20451;-77
2024/02/13 00:59:12;;;;;;;3.70;2.27;;;;;;;5.24;100.00;152707.28;5044566;28;20471;-77
2024/02/13 01:01:39;;;;;;;3.00;2.53;;;;;;;5.27;100.00;152715.03;5042801;28;20459;-77
2024/02/13 01:04:06;;;;;;;4.60;2.20;;;;;;;5.26;100.00;152713.75;5048507;28;20502;-77
2024/02/13 01:06:33;;;;;;;3.77;1.70;;;;;;;5.27;100.00;152715.03;5049824;28;20957;-77
2024/02/13 01:09:03;;;;;;;7.73;2.27;;;;;;;5.31;100.00;152725.31;5050144;28;20451;-77
2024/02/13 01:11:29;;;;;;;2.20;2.00;;;;;;;5.35;100.00;152735.63;5036592;28;20450;-77
2024/02/13 01:13:56;;;;;;;3.40;2.13;;;;;;;5.37;100.00;152740.81;5050791;28;20521;-77
2024/02/13 01:16:23;;;;;;;2.90;2.33;;;;;;;5.40;100.00;152749.81;5028429;28;20501;-77
2024/02/13 01:18:52;;;;;;;4.23;2.07;;;;;;;5.44;100.00;152758.84;5046121;28;20596;-77
2024/02/13 01:21:19;;;;;;;2.83;2.10;;;;;;;5.45;100.00;152761.44;5056119;28;20453;-77
2024/02/13 01:23:45;;;;;;;5.00;2.40;;;;;;;5.49;100.00;152773.03;5027751;28;20517;-77
2024/02/13 01:26:13;;;;;;;3.50;2.13;;;;;;;5.51;100.00;152776.88;5037575;28;20451;-77
2024/02/13 01:28:40;;;;;;;4.00;2.30;;;;;;;5.54;100.00;152784.63;5048371;28;21052;-77
2024/02/13 01:31:07;;;;;;;3.23;2.07;;;;;;;5.55;100.00;152787.22;5048313;28;20877;-77
2024/02/13 01:33:34;;;;;;;2.30;1.77;;;;;;;5.56;100.00;152789.75;5041145;28;20517;-77
2024/02/13 01:36:04;;;;;;;4.13;2.43;;;;;;;5.54;100.00;152784.63;5036170;28;21086;-77
2024/02/13 01:38:31;;;;;;;5.47;2.63;;;;;;;5.56;100.00;152789.75;5046044;28;20489;-77
2024/02/13 01:40:57;;;;;;;3.30;2.47;;;;;;;5.55;100.00;152787.22;5028783;28;20973;-77
2024/02/13 01:43:29;;;;;;;6.77;2.63;;;;;;;5.58;100.00;152793.66;5028108;28;20470;-77
2024/02/13 01:45:57;;;;;;;3.40;2.07;;;;;;;5.60;100.00;152800.09;5042621;28;21234;-77
2024/02/13 01:48:25;;;;;;;3.47;2.20;;;;;;;5.63;100.00;152807.84;5043477;28;20445;-77
2024/02/13 01:50:51;;;;;;;3.87;2.33;;;;;;;5.64;100.00;152810.41;5033608;28;20466;-77
2024/02/13 01:53:19;;;;;;;3.10;2.70;;;;;;;5.65;100.00;152811.69;5033924;28;21056;-77
2024/02/13 01:55:46;;;;;;;4.47;2.40;;;;;;;5.64;100.00;152810.41;5026168;28;20466;-77
2024/02/13 01:58:15;;;;;;;2.53;2.27;;;;;;;5.64;100.00;152809.16;5024319;28;20455;-77
2024/02/13 02:00:43;;;;;;;4.30;2.23;;;;;;;5.63;100.00;152807.84;5036078;28;20463;-77
2024/02/13 02:03:13;;;;;;;5.23;2.47;;;;;;;5.65;100.00;152813.00;5036133;28;21229;-77
2024/02/13 02:05:40;;;;;;;5.73;2.40;;;;;;;5.66;100.00;152815.59;5027792;28;20533;-77
2024/02/13 02:08:07;;;;;;;4.40;2.20;;;;;;;5.68;100.00;152819.44;5049842;28;20470;-77
2024/02/13 02:10:34;;;;;;;4.40;1.90;;;;;;;5.67;100.00;152818.16;5044472;28;20531;-77
2024/02/13 02:13:01;;;;;;;3.27;2.30;;;;;;;5.68;100.00;152820.75;5064264;28;20910;-77
2024/02/13 02:15:28;;;;;;;2.10;1.80;;;;;;;5.68;100.00;152820.75;5048506;28;20454;-77
2024/02/13 02:17:56;;;;;;;3.23;2.10;;;;;;;5.69;100.00;152822.03;5049170;28;20819;-77
2024/02/13 02:20:23;;;;;;;4.23;2.20;;;;;;;5.69;100.00;152822.03;5051998;28;21055;-77
2024/02/13 02:22:50;;;;;;;2.30;2.10;;;;;;;5.70;100.00;152825.88;5067516;28;20434;-77
2024/02/13 02:25:19;;;;;;;3.70;2.30;;;;;;;5.68;100.00;152820.75;5042059;28;20971;-77
2024/02/13 02:27:45;;;;;;;2.70;2.03;;;;;;;5.66;100.00;152815.59;5061302;28;20966;-77
2024/02/13 02:30:13;;;;;;;3.67;2.50;;;;;;;5.62;100.00;152805.25;5041687;28;20449;-77
2024/02/13 02:32:40;;;;;;;6.10;2.60;;;;;;;5.66;100.00;152815.59;5043366;28;20458;-77
2024/02/13 02:35:07;;;;;;;3.93;2.07;;;;;;;5.64;100.00;152810.41;5045976;28;20507;-77
2024/02/13 02:37:35;;;;;;;6.90;2.70;;;;;;;5.61;100.00;152802.72;5063090;28;20461;-77
2024/02/13 02:40:02;;;;;;;5.87;2.17;;;;;;;5.57;100.00;152792.38;5046246;28;20563;-77
2024/02/13 02:42:29;;;;;;;3.10;2.03;;;;;;;5.53;100.00;152782.06;5058047;28;20873;-78
2024/02/13 02:44:56;;;;;;;3.67;2.47;;;;;;;5.49;100.00;152771.72;5032765;28;20456;-77
2024/02/13 02:47:23;;;;;;;3.30;2.60;;;;;;;5.47;100.00;152767.88;5046044;28;20458;-77
2024/02/13 02:49:49;;;;;;;3.60;2.10;;;;;;;5.47;100.00;152766.59;5052615;28;20448;-77
2024/02/13 02:52:17;;;;;;;3.40;2.27;;;;;;;5.47;100.00;152766.59;5047590;28;20491;-77
2024/02/13 02:54:44;;;;;;;2.40;1.77;;;;;;;5.46;100.00;152765.28;5066621;28;20441;-78
2024/02/13 02:57:11;;;;;;;3.23;2.20;;;;;;;5.45;100.00;152762.69;5048157;28;20967;-77
2024/02/13 02:59:39;;;;;;;4.40;2.10;;;;;;;5.42;100.00;152753.69;5062575;28;20434;-77
2024/02/13 03:02:07;;;;;;;2.07;1.43;;;;;;;5.37;100.00;152740.81;5025661;28;20701;-78
2024/02/13 03:04:35;;;;;;;4.17;1.80;;;;;;;5.35;100.00;152735.63;5053165;28;20480;-77
2024/02/13 03:07:01;;;;;;;5.13;1.90;;;;;;;5.33;100.00;152731.78;5042948;28;20477;-77
2024/02/13 03:09:28;;;;;;;3.43;1.90;;;;;;;5.29;100.00;152720.19;5066398;28;20531;-77
2024/02/13 03:11:54;;;;;;;4.13;1.93;;;;;;;5.26;100.00;152713.75;5023412;28;20434;-77
2024/02/13 03:14:21;;;;;;;5.07;2.00;;;;;;;5.28;100.00;152717.59;5029151;28;20868;-77
2024/02/13 03:16:50;;;;;;;3.30;1.97;;;;;;;5.29;100.00;152720.19;5044697;28;20503;-77
2024/02/13 03:19:16;;;;;;;5.17;2.07;;;;;;;5.28;100.00;152717.59;5033651;28;20556;-77
2024/02/13 03:21:43;;;;;;;2.80;2.27;;;;;;;5.26;100.00;152712.44;5064469;28;20980;-77
2024/02/13 03:24:09;;;;;;;2.20;1.70;;;;;;;5.20;100.00;152698.25;5059933;28;20465;-77
2024/02/13 03:26:36;;;;;;;2.83;1.70;;;;;;;5.18;100.00;152693.09;5060842;28;20465;-77
2024/02/13 03:29:03;;;;;;;2.67;1.70;;;;;;;5.19;100.00;152694.41;5063763;28;20956;-77
2024/02/13 03:31:29;;;;;;;3.27;1.93;;;;;;;5.19;100.00;152694.41;5062975;28;20485;-77
2024/02/13 03:33:57;;;;;;;3.07;1.93;;;;;;;5.18;100.00;152691.81;5045031;28;20575;-77
2024/02/13 03:36:23;;;;;;;2.57;1.70;;;;;;;5.17;100.00;152689.22;5037167;28;20529;-77
2024/02/13 03:38:49;;;;;;;2.67;1.80;;;;;;;5.13;100.00;152678.94;5029334;28;20570;-77
2024/02/13 03:41:16;;;;;;;2.47;1.60;;;;;;;5.08;100.00;152667.34;5045989;28;20569;-78
2024/02/13 03:43:44;;;;;;;2.93;1.83;;;;;;;5.03;100.00;152653.16;5063410;28;20780;-77
2024/02/13 03:46:11;;;;;;;4.37;1.93;;;;;;;5.01;100.00;152649.25;5062914;28;20457;-77
2024/02/13 03:48:37;;;;;;;4.30;2.00;;;;;;;4.99;100.00;152642.81;5048407;28;21035;-77
2024/02/13 03:51:06;;;;;;;3.93;2.00;;;;;;;4.98;100.00;152640.28;5045140;28;20470;-77
2024/02/13 03:53:35;;;;;;;3.10;2.00;;;;;;;4.94;100.00;152631.22;5066230;28;20561;-77
2024/02/13 03:56:02;;;;;;;3.30;1.77;;;;;;;4.91;100.00;152624.78;5065252;28;21240;-77
2024/02/13 03:58:29;;;;;;;3.50;1.93;;;;;;;4.91;100.00;152623.50;5054690;28;20449;-77
2024/02/13 04:00:56;;;;;;;2.77;1.87;;;;;;;4.91;100.00;152624.78;5048017;28;20496;-77
2024/02/13 04:03:26;;;;;;;2.50;1.80;;;;;;;4.90;100.00;152622.19;5054485;28;20480;-77
2024/02/13 04:05:53;;;;;;;4.27;2.07;;;;;;;4.84;100.00;152606.72;5063350;28;20560;-77
2024/02/13 04:08:21;;;;;;;2.53;1.90;;;;;;;4.83;100.00;152602.88;5050808;28;20485;-77
2024/02/13 04:10:47;;;;;;;2.47;1.77;;;;;;;4.83;100.00;152602.88;5070084;28;20465;-77
2024/02/13 04:13:14;;;;;;;6.93;2.23;;;;;;;4.81;100.00;152599.03;5048807;28;20536;-77
2024/02/13 04:15:40;;;;;;;3.10;2.17;;;;;;;4.79;100.00;152593.84;5067550;28;20507;-77
2024/02/13 04:18:08;;;;;;;4.10;2.00;;;;;;;4.78;100.00;152591.28;5050622;28;20495;-77
2024/02/13 04:20:34;;;;;;;4.53;2.10;;;;;;;4.73;100.00;152578.41;5033729;28;20455;-77
2024/02/13 04:23:03;;;;;;;5.03;1.50;;;;;;;4.72;100.00;152575.81;5048924;28;20851;-78
2024/02/13 04:25:31;;;;;;;3.30;2.20;;;;;;;4.70;100.00;152569.38;5029273;28;21020;-77
2024/02/13 04:27:58;;;;;;;2.77;1.87;;;;;;;4.71;100.00;152573.22;5050831;28;20468;-77
2024/02/13 04:30:25;;;;;;;2.20;2.00;;;;;;;4.69;100.00;152566.78;5052001;28;20437;-78
2024/02/13 04:32:51;;;;;;;2.30;1.93;;;;;;;4.68;100.00;152565.53;5069109;28;20452;-77
2024/02/13 04:35:18;;;;;;;2.87;1.80;;;;;;;4.70;100.00;152569.38;5070110;28;20430;-77
2024/02/13 04:37:44;;;;;;;3.43;1.90;;;;;;;4.74;100.00;152579.66;5046850;28;20458;-77
2024/02/13 04:40:12;;;;;;;2.00;1.73;;;;;;;4.75;100.00;152583.56;5029860;28;20445;-77
2024/02/13 04:42:40;;;;;;;2.20;1.77;;;;;;;4.77;100.00;152588.69;5064475;28;20787;-77
2024/02/13 04:45:07;;;;;;;3.10;2.00;;;;;;;4.75;100.00;152582.25;5051082;28;20793;-77
2024/02/13 04:47:34;;;;;;;4.20;1.97;;;;;;;4.74;100.00;152579.66;5068452;28;20875;-77
2024/02/13 04:50:06;;;;;;;3.27;2.37;;;;;;;4.74;100.00;152580.97;5029772;28;20447;-77
2024/02/13 04:52:33;;;;;;;5.10;2.23;;;;;;;4.74;100.00;152580.97;5019745;28;20558;-77
2024/02/13 04:55:00;;;;;;;3.70;2.07;;;;;;;4.77;100.00;152587.41;5050157;28;20470;-77
2024/02/13 04:57:27;;;;;;;3.60;2.00;;;;;;;4.75;100.00;152583.56;5051548;28;20474;-77
2024/02/13 04:59:57;;;;;;;2.77;1.93;;;;;;;4.78;100.00;152590.00;5066304;28;20461;-78
2024/02/13 05:02:24;;;;;;;2.93;2.00;;;;;;;4.79;100.00;152593.84;5032942;28;20476;-77
2024/02/13 05:07:35;;;;;;;3.37;1.97;;;;;;;4.81;100.00;152599.03;5066581;28;20916;-77
2024/02/13 05:10:03;;;;;;;2.83;2.03;;;;;;;4.82;100.00;152601.56;5051233;28;20446;-77
2024/02/13 05:12:29;;;;;;;2.60;1.90;;;;;;;4.83;100.00;152602.88;5048605;28;20457;-77
2024/02/13 05:14:59;;;;;;;4.13;2.30;;;;;;;4.83;100.00;152602.88;5050538;28;20450;-77
2024/02/13 05:17:35;;;;;;;2.87;2.10;;;;;;;4.84;100.00;152606.72;5033846;28;20426;-77
2024/02/13 05:20:02;;;;;;;3.00;2.10;;;;;;;4.85;100.00;152609.31;5068854;28;20495;-77
2024/02/13 05:22:34;;;;;;;2.83;2.20;;;;;;;4.86;100.00;152611.91;5069259;28;20484;-77
2024/02/13 05:25:04;;;;;;;4.77;2.03;;;;;;;4.86;100.00;152611.91;5061541;28;20450;-77
2024/02/13 05:27:34;;;;;;;4.40;2.67;;;;;;;4.87;100.00;152614.47;5050399;28;20450;-77
2024/02/13 05:30:04;;;;;;;3.33;2.50;;;;;;;4.85;100.00;152609.31;5068694;28;20442;-77
2024/02/13 05:32:31;;;;;;;3.00;2.40;;;;;;;4.87;100.00;152613.22;5068900;28;20442;-77
2024/02/13 05:34:59;;;;;;;4.27;2.80;;;;;;;4.88;100.00;152617.06;5068160;28;20561;-77
2024/02/13 05:37:26;;;;;;;4.20;2.57;;;;;;;4.87;100.00;152613.22;5046487;28;20568;-77
2024/02/13 05:39:56;;;;;;;2.80;2.23;;;;;;;4.85;100.00;152608.03;5048636;28;20549;-77
2024/02/13 05:42:29;;;;;;;3.03;1.90;;;;;;;4.85;100.00;152609.31;5061444;28;20484;-77
2024/02/13 05:44:56;;;;;;;2.77;1.97;;;;;;;4.83;100.00;152604.16;5069184;28;20450;-77
2024/02/13 05:47:31;;;;;;;3.90;2.50;;;;;;;4.82;100.00;152601.56;5032448;28;20987;-77
2024/02/13 05:49:59;;;;;;;4.63;2.30;;;;;;;4.81;100.00;152597.72;5028850;28;20442;-77
2024/02/13 05:52:25;;;;;;;3.97;2.53;;;;;;;4.79;100.00;152592.59;5052082;28;20441;-77
2024/02/13 05:54:52;;;;;;;4.40;2.27;;;;;;;4.76;100.00;152586.16;5067055;28;20437;-77
2024/02/13 05:57:19;;;;;;;2.90;2.10;;;;;;;4.70;100.00;152570.66;5068602;28;20557;-77
2024/02/13 06:00:02;;;;;;;3.00;2.50;;;;;;;4.67;100.00;152562.94;5064376;28;20507;-77
2024/02/13 06:02:40;;;;;;;2.87;2.30;;;;;;;4.68;100.00;152564.22;5038054;28;20466;-77
2024/02/13 06:05:09;;;;;;;2.67;2.43;;;;;;;4.64;100.00;152555.19;5037648;28;20466;-77
2024/02/13 06:07:36;;;;;;;3.47;2.50;;;;;;;4.58;100.00;152539.72;5033579;28;20902;-76
2024/02/13 06:10:03;;;;;;;3.33;2.27;;;;;;;4.57;100.00;152535.88;5033241;28;20970;-77
2024/02/13 06:12:30;;;;;;;3.00;2.07;;;;;;;4.57;100.00;152535.88;5051000;28;20948;-77
2024/02/13 06:14:56;;;;;;;2.80;2.10;;;;;;;4.60;100.00;152544.91;5033871;28;20502;-77
2024/02/13 06:17:24;;;;;;;3.73;2.53;;;;;;;4.57;100.00;152537.19;5034955;28;20491;-77
2024/02/13 06:19:52;;;;;;;3.90;2.70;;;;;;;4.57;100.00;152537.19;5051670;28;20529;-77
2024/02/13 06:22:18;;;;;;;5.37;2.57;;;;;;;4.61;100.00;152547.47;5050612;28;20481;-77
2024/02/13 06:24:45;;;;;;;3.00;2.37;;;;;;;4.64;100.00;152553.91;5035863;28;20463;-77
2024/02/13 06:27:11;;;;;;;4.63;2.30;;;;;;;4.66;100.00;152559.09;5050531;28;20950;-77
2024/02/13 06:29:38;;;;;;;4.90;2.83;;;;;;;4.67;100.00;152561.63;5050195;28;20463;-77
2024/02/13 06:32:05;;;;;;;3.97;2.60;;;;;;;4.70;100.00;152569.38;5036404;28;20443;-78
2024/02/13 06:34:32;;;;;;;3.40;2.30;;;;;;;4.70;100.00;152570.66;5033264;28;20500;-77
2024/02/13 06:37:01;;;;;;;3.63;2.80;;;;;;;4.71;100.00;152573.22;5034854;28;20465;-77
2024/02/13 06:39:28;;;;;;;4.43;2.50;;;;;;;4.71;100.00;152571.97;5033057;28;20480;-77
2024/02/13 06:41:54;;;;;;;5.00;2.43;;;;;;;4.73;100.00;152578.41;5016645;28;20487;-77
2024/02/13 06:44:23;;;;;;;4.10;2.60;;;;;;;4.74;100.00;152580.97;5051750;28;20451;-77
2024/02/13 06:46:50;;;;;;;4.83;2.70;;;;;;;4.75;100.00;152582.25;5033885;28;20459;-77
2024/02/13 06:49:16;;;;;;;4.37;2.77;;;;;;;4.76;100.00;152584.84;5050588;28;20480;-77
2024/02/13 06:51:43;;;;;;;4.00;2.60;;;;;;;4.74;100.00;152580.97;5016480;28;20451;-77
2024/02/13 06:54:11;;;;;;;4.97;2.77;;;;;;;4.75;100.00;152583.56;5035425;28;20446;-77
2024/02/13 06:56:38;;;;;;;4.37;2.90;;;;;;;4.73;100.00;152578.41;5016842;28;20475;-77
2024/02/13 06:59:07;;;;;;;4.73;2.73;;;;;;;4.74;100.00;152579.66;5035022;28;20444;-77
2024/02/13 07:01:35;;;;;;;3.87;3.10;;;;;;;4.76;100.00;152584.84;5031427;28;20476;-77
2024/02/13 07:04:02;;;;;;;3.77;3.20;;;;;;;4.78;100.00;152590.00;5034052;28;20452;-78
2024/02/13 07:06:28;;;;;;;7.53;3.10;;;;;;;4.79;100.00;152593.84;5051547;28;20978;-77
2024/02/13 07:08:54;;;;;;;4.60;3.27;;;;;;;4.79;100.00;152593.84;5055301;28;20499;-76
2024/02/13 07:11:22;;;;;;;6.43;2.83;;;;;;;4.81;100.00;152599.03;5045224;28;20275;-77
2024/02/13 07:13:49;;;;;;;5.70;2.83;;;;;;;4.85;100.00;152609.31;5054506;28;20864;-77
2024/02/13 07:16:15;;;;;;;5.90;3.10;;;;;;;4.89;100.00;152619.66;5053070;28;20449;-77
2024/02/13 07:18:42;;;;;;;3.93;3.07;;;;;;;4.92;100.00;152627.34;5054655;28;20746;-77
2024/02/13 07:21:08;;;;;;;4.90;3.00;;;;;;;4.93;100.00;152629.94;5054451;28;21096;-77
2024/02/13 07:23:35;;;;;;;4.20;2.70;;;;;;;4.97;100.00;152637.69;5036338;28;20490;-77
2024/02/13 07:26:01;;;;;;;3.67;2.70;;;;;;;4.99;100.00;152644.13;5053008;28;20895;-77
2024/02/13 07:28:29;;;;;;;3.80;2.67;;;;;;;5.02;100.00;152651.84;5036047;28;20901;-77
2024/02/13 07:30:56;;;;;;;3.47;2.83;;;;;;;5.05;100.00;152658.31;5053815;28;20532;-77
2024/02/13 07:33:22;;;;;;;4.33;2.90;;;;;;;5.11;100.00;152673.78;5055587;28;20457;-76
2024/02/13 07:35:49;;;;;;;3.10;2.57;;;;;;;5.13;100.00;152680.22;5055340;28;20474;-77
2024/02/13 07:38:16;;;;;;;5.67;3.27;;;;;;;5.17;100.00;152689.22;5057802;28;20486;-77
2024/02/13 07:40:43;;;;;;;3.73;2.60;;;;;;;5.22;100.00;152703.41;5058517;28;20892;-77
2024/02/13 07:43:12;;;;;;;4.90;2.70;;;;;;;5.28;100.00;152717.59;5040524;28;20505;-77
2024/02/13 07:45:40;;;;;;;4.00;3.10;;;;;;;5.34;100.00;152733.06;5057677;28;20539;-77
2024/02/13 07:48:10;;;;;;;2.77;2.50;;;;;;;5.39;100.00;152745.94;5057978;28;20450;-77
2024/02/13 07:50:38;;;;;;;5.00;3.87;;;;;;;5.47;100.00;152767.88;5057880;28;20609;-77
2024/02/13 07:53:06;;;;;;;4.83;3.40;;;;;;;6.16;100.00;152942.03;5048483;28;20439;-77
2024/02/13 07:55:35;;;;;;;8.27;3.50;;;;;;;7.25;100.00;153223.38;5055675;28;20902;-77
2024/02/13 07:58:02;;;;;;;5.57;3.83;;;;;;;7.94;100.00;153399.09;5058565;28;20527;-77
2024/02/13 08:00:29;;;;;;;4.80;4.03;;;;;;;7.95;100.00;153401.63;5037774;28;20541;-77
2024/02/13 08:02:57;;;;;;;4.70;3.30;;;;;;;8.37;100.00;153510.22;5039402;28;20611;-77
2024/02/13 08:05:23;;;;;;;4.43;3.13;;;;;;;9.16;100.00;153713.22;5058108;28;20454;-77
2024/02/13 08:07:50;;;;;;;2.93;2.40;;;;;;;9.85;97.73;153887.88;5057959;28;20478;-77
2024/02/13 08:10:17;;;;;;;2.40;2.20;;;;;;;9.94;92.50;153911.16;5058358;28;20485;-77
2024/02/13 08:12:45;;;;;;;3.10;2.40;;;;;;;9.56;90.01;153814.09;5056689;28;21176;-77
2024/02/13 08:15:11;;;;;;;2.97;2.57;;;;;;;8.98;90.50;153665.34;5057686;28;20468;-77
2024/02/13 08:17:38;;;;;;;3.43;2.60;;;;;;;8.48;92.22;153537.38;5057312;28;20902;-77
2024/02/13 08:20:08;;;;;;;4.40;2.70;;;;;;;8.14;93.80;153449.44;5040051;28;20935;-77
2024/02/13 08:22:35;;;;;;;4.00;2.60;;;;;;;7.90;95.24;153388.72;5057917;28;20497;-77
2024/02/13 08:25:01;;;;;;;4.00;2.03;;;;;;;7.70;97.25;153338.38;5041598;28;20507;-77
2024/02/13 08:27:29;;;;;;;3.83;2.40;;;;;;;7.57;98.34;153304.72;5038946;28;20486;-77
2024/02/13 08:29:56;;;;;;;3.47;2.60;;;;;;;7.49;99.38;153282.81;5054840;28;20549;-78
2024/02/13 08:32:22;;;;;;;3.60;2.80;;;;;;;7.41;100.00;153262.16;5057129;28;20455;-78
2024/02/13 08:34:48;;;;;;;3.00;2.20;;;;;;;7.35;100.00;153249.25;5038683;28;21058;-78
2024/02/13 08:37:16;;;;;;;5.40;3.40;;;;;;;7.36;100.00;153251.78;5055001;28;20482;-78
2024/02/13 08:39:43;;;;;;;4.13;2.60;;;;;;;7.39;100.00;153258.25;5056978;28;20530;-77
2024/02/13 08:42:09;;;;;;;3.90;2.53;;;;;;;7.40;100.00;153260.84;5056169;28;20543;-78
2024/02/13 08:44:36;;;;;;;5.00;2.50;;;;;;;7.41;100.00;153262.16;5058841;28;20477;-78
2024/02/13 08:47:03;;;;;;;4.90;2.13;;;;;;;7.43;100.00;153267.31;5038197;28;20467;-78
2024/02/13 08:49:29;;;;;;;3.50;2.40;;;;;;;7.44;100.00;153269.91;5057051;28;20455;-78
2024/02/13 08:51:56;;;;;;;3.53;2.40;;;;;;;7.45;100.00;153272.47;5056896;28;20575;-78
2024/02/13 08:54:24;;;;;;;3.80;2.77;;;;;;;7.49;100.00;153282.81;5056887;28;20455;-78
2024/02/13 08:56:51;;;;;;;4.10;2.90;;;;;;;7.51;100.00;153289.28;5039389;28;20448;-77
2024/02/13 08:59:18;;;;;;;4.00;3.17;;;;;;;7.63;100.00;153318.94;5056117;28;20512;-78
2024/02/13 09:01:45;;;;;;;5.23;2.70;;;;;;;7.72;100.00;153342.22;5040780;28;20499;-78
2024/02/13 09:04:12;;;;;;;5.67;3.40;;;;;;;7.79;99.87;153361.59;5056301;28;20504;-78
2024/02/13 09:06:39;;;;;;;3.40;2.90;;;;;;;7.85;99.57;153377.09;5057223;28;21038;-77
2024/02/13 09:09:08;;;;;;;5.63;2.77;;;;;;;7.88;99.76;153383.56;5021686;28;21027;-78
2024/02/13 09:11:36;;;;;;;3.60;2.50;;;;;;;7.91;98.55;153391.31;5053834;28;20458;-78
2024/02/13 09:14:03;;;;;;;4.13;2.40;;;;;;;7.97;97.85;153408.09;5021532;28;20497;-77
2024/02/13 09:16:30;;;;;;;5.10;3.13;;;;;;;8.05;97.11;153426.22;5057484;28;20861;-77
2024/02/13 09:18:56;;;;;;;4.97;2.63;;;;;;;8.09;96.54;153436.53;5037485;28;20772;-77
2024/02/13 09:21:23;;;;;;;3.83;2.30;;;;;;;8.14;96.18;153449.44;5057324;28;20922;-77
2024/02/13 09:23:49;;;;;;;5.37;2.10;;;;;;;8.18;95.21;153461.06;5039165;28;20872;-77
2024/02/13 09:26:16;;;;;;;4.57;2.40;;;;;;;8.18;93.89;153461.06;5056678;28;20834;-77
2024/02/13 09:28:44;;;;;;;2.80;1.90;;;;;;;8.18;94.70;153459.81;5056281;28;20540;-77
2024/02/13 09:31:11;;;;;;;2.33;2.00;;;;;;;8.18;95.52;153461.06;5059504;28;20446;-77
2024/02/13 09:33:39;;;;;;;3.83;2.83;;;;;;;8.13;94.96;153448.13;5055616;28;20520;-77
2024/02/13 09:36:06;;;;;;;4.10;1.90;;;;;;;8.17;93.87;153457.19;5054905;28;20532;-77
2024/02/13 09:38:34;;;;;;;2.10;1.90;;;;;;;8.21;92.68;153468.81;5057013;28;20504;-77
2024/02/13 09:41:00;;;;;;;3.10;1.80;;;;;;;8.24;92.73;153476.59;5056464;28;20527;-77
2024/02/13 09:43:27;;;;;;;2.30;1.40;;;;;;;8.29;92.86;153489.56;5055006;28;20510;-77
2024/02/13 09:45:55;;;;;;;3.07;1.23;;;;;;;8.29;93.22;153488.25;5057137;28;20469;-77
2024/02/13 09:48:23;;;;;;;2.23;1.90;;;;;;;8.28;93.17;153487.00;5039046;28;20884;-77
2024/02/13 09:50:51;;;;;;;4.03;1.67;;;;;;;8.26;92.58;153480.50;5037493;28;20577;-77
2024/02/13 09:53:19;;;;;;;5.20;1.20;;;;;;;8.23;92.62;153474.03;5050580;28;20439;-77
2024/02/13 09:55:46;;;;;;;2.03;1.67;;;;;;;8.19;93.08;153463.66;5037203;28;20970;-77
2024/02/13 09:58:13;;;;;;;2.53;1.70;;;;;;;8.25;93.65;153477.88;5055336;28;20791;-77
2024/02/13 10:00:42;;;;;;;4.00;1.60;;;;;;;8.26;93.46;153481.75;5055174;28;20963;-77
2024/02/13 10:03:11;;;;;;;2.90;1.20;;;;;;;8.23;93.01;153474.03;5038965;28;20467;-77
2024/02/13 10:05:39;;;;;;;2.13;1.47;;;;;;;8.18;92.95;153461.06;5020978;28;20462;-77
2024/02/13 10:08:07;;;;;;;3.10;1.50;;;;;;;8.16;92.81;153455.91;5054298;28;20474;-77
2024/02/13 10:10:34;;;;;;;4.53;1.43;;;;;;;8.17;93.44;153457.19;5045292;28;20450;-77
2024/02/13 10:13:01;;;;;;;1.70;1.50;;;;;;;8.18;92.94;153459.81;5056411;28;20446;-77
2024/02/13 10:15:38;;;;;;;3.50;1.47;;;;;;;8.17;92.25;153458.50;5056776;28;20450;-77
2024/02/13 10:18:07;;;;;;;3.00;2.00;;;;;;;8.15;92.37;153452.03;5037530;28;21029;-77
2024/02/13 10:20:38;;;;;;;2.20;1.53;;;;;;;8.13;91.22;153448.13;5045145;28;20493;-77
2024/02/13 10:23:05;;;;;;;2.80;1.40;;;;;;;8.13;91.61;153448.13;5058084;28;20470;-77
2024/02/13 10:25:33;;;;;;;4.43;1.77;;;;;;;8.13;91.63;153448.13;5039195;28;20449;-77
2024/02/13 10:28:01;;;;;;;3.17;1.60;;;;;;;8.14;92.56;153449.44;5039126;28;20504;-77
2024/02/13 10:30:29;;;;;;;3.03;1.60;;;;;;;8.15;92.62;153452.03;5056287;28;20467;-77
2024/02/13 10:32:59;;;;;;;3.23;1.63;;;;;;;8.18;90.79;153461.06;5038506;28;20458;-77
2024/02/13 10:35:29;;;;;;;3.47;2.50;;;;;;;8.24;89.37;153475.28;5044700;28;20508;-77
2024/02/13 10:37:57;;;;;;;2.07;1.43;;;;;;;8.30;87.93;153492.16;5038104;28;21061;-78
2024/02/13 10:40:26;;;;;;;3.47;2.40;;;;;;;8.40;88.36;153518.00;5057491;28;20458;-78
2024/02/13 10:42:54;;;;;;;3.83;1.60;;;;;;;8.42;89.24;153523.16;5057022;28;20898;-76
2024/02/13 10:45:23;;;;;;;3.13;1.60;;;;;;;8.46;88.68;153533.53;5038353;28;20438;-76
2024/02/13 10:47:51;;;;;;;1.77;1.40;;;;;;;8.52;88.95;153549.00;5036616;28;20949;-76
2024/02/13 10:50:18;;;;;;;4.00;1.50;;;;;;;8.52;89.67;153549.00;5054038;28;20443;-76
2024/02/13 10:52:46;;;;;;;4.23;1.90;;;;;;;8.56;89.26;153559.38;5045413;28;20524;-76
2024/02/13 10:55:18;;;;;;;2.13;1.67;;;;;;;8.61;88.80;153570.97;5052146;28;21032;-76
2024/02/13 10:57:45;;;;;;;3.17;1.43;;;;;;;8.69;89.54;153591.66;5054991;28;20803;-76
2024/02/13 11:00:18;;;;;;;2.13;1.50;;;;;;;8.75;87.46;153605.91;5038626;28;20473;-76
2024/02/13 11:02:47;;;;;;;2.30;1.50;;;;;;;8.83;87.40;153626.59;5038905;28;20861;-76
2024/02/13 11:05:16;;;;;;;2.37;1.50;;;;;;;8.87;87.97;153636.94;5020140;28;20470;-76
2024/02/13 11:07:42;;;;;;;1.77;1.30;;;;;;;8.93;87.49;153652.44;5055117;28;20469;-76
2024/02/13 11:10:10;;;;;;;2.07;1.57;;;;;;;8.94;85.95;153656.34;5053745;28;20465;-76
2024/02/13 11:12:38;;;;;;;4.07;1.70;;;;;;;8.96;84.47;153660.19;5055113;28;20465;-76
2024/02/13 11:15:09;;;;;;;2.80;1.43;;;;;;;8.98;85.83;153665.34;5056108;28;20443;-76
2024/02/13 11:17:44;;;;;;;1.97;1.30;;;;;;;8.97;84.64;153662.81;5037690;28;20739;-76
2024/02/13 11:20:13;;;;;;;2.00;1.33;;;;;;;9.01;85.11;153673.13;5037196;28;21006;-76
2024/02/13 11:22:44;;;;;;;1.80;1.17;;;;;;;9.04;85.70;153682.19;5055056;28;20531;-78
2024/02/13 11:25:12;;;;;;;3.63;1.10;;;;;;;9.11;82.28;153698.97;5037061;28;20508;-78
2024/02/13 11:27:40;;;;;;;2.13;1.03;;;;;;;9.24;82.46;153732.59;5038802;28;20860;-78
2024/02/13 11:30:08;;;;;;;1.30;0.93;;;;;;;9.31;82.22;153750.75;5053917;28;20455;-78